sensor_id;sensor_type;location;lat;lon;timestamp;P1;durP1;ratioP1;P2;durP2;ratioP2
8312;SDS011;4194;43.408;24.626;2023-05-10T00:00:33;10.50;;;9.47;;
8312;SDS011;4194;43.408;24.626;2023-05-10T00:02:59;12.90;;;10.87;;
8312;SDS011;4194;43.408;24.626;2023-05-10T00:05:24;11.20;;;10.00;;
8312;SDS011;4194;43.408;24.626;2023-05-10T00:07:50;12.80;;;10.53;;
8312;SDS011;4194;43.408;24.626;2023-05-10T00:10:16;12.43;;;11.03;;
8312;SDS011;4194;43.408;24.626;2023-05-10T00:12:41;11.77;;;10.10;;
8312;SDS011;4194;43.408;24.626;2023-05-10T00:15:07;11.30;;;10.20;;
8312;SDS011;4194;43.408;24.626;2023-05-10T00:17:34;12.07;;;10.63;;
8312;SDS011;4194;43.408;24.626;2023-05-10T00:19:59;12.33;;;10.87;;
8312;SDS011;4194;43.408;24.626;2023-05-10T00:22:25;11.47;;;10.33;;
8312;SDS011;4194;43.408;24.626;2023-05-10T00:24:51;14.03;;;11.27;;
8312;SDS011;4194;43.408;24.626;2023-05-10T00:27:17;12.30;;;10.13;;
8312;SDS011;4194;43.408;24.626;2023-05-10T00:29:43;11.77;;;10.67;;
8312;SDS011;4194;43.408;24.626;2023-05-10T00:32:09;15.23;;;11.43;;
8312;SDS011;4194;43.408;24.626;2023-05-10T00:34:34;13.00;;;11.60;;
8312;SDS011;4194;43.408;24.626;2023-05-10T00:37:00;13.67;;;11.50;;
8312;SDS011;4194;43.408;24.626;2023-05-10T00:39:26;13.43;;;11.70;;
8312;SDS011;4194;43.408;24.626;2023-05-10T00:41:53;15.43;;;12.03;;
8312;SDS011;4194;43.408;24.626;2023-05-10T00:44:19;13.67;;;11.13;;
8312;SDS011;4194;43.408;24.626;2023-05-10T00:46:45;14.67;;;11.60;;
8312;SDS011;4194;43.408;24.626;2023-05-10T00:49:12;14.87;;;11.57;;
8312;SDS011;4194;43.408;24.626;2023-05-10T00:51:37;15.80;;;12.60;;
8312;SDS011;4194;43.408;24.626;2023-05-10T00:54:03;13.50;;;12.07;;
8312;SDS011;4194;43.408;24.626;2023-05-10T00:56:30;13.37;;;11.93;;
8312;SDS011;4194;43.408;24.626;2023-05-10T00:58:56;16.97;;;11.97;;
8312;SDS011;4194;43.408;24.626;2023-05-10T01:01:22;14.03;;;11.50;;
8312;SDS011;4194;43.408;24.626;2023-05-10T01:03:48;13.40;;;11.17;;
8312;SDS011;4194;43.408;24.626;2023-05-10T01:06:14;12.83;;;11.50;;
8312;SDS011;4194;43.408;24.626;2023-05-10T01:08:39;17.73;;;11.67;;
8312;SDS011;4194;43.408;24.626;2023-05-10T01:11:05;17.37;;;11.17;;
8312;SDS011;4194;43.408;24.626;2023-05-10T01:13:35;13.27;;;10.87;;
8312;SDS011;4194;43.408;24.626;2023-05-10T01:16:02;12.27;;;11.00;;
8312;SDS011;4194;43.408;24.626;2023-05-10T01:18:29;11.13;;;10.03;;
8312;SDS011;4194;43.408;24.626;2023-05-10T01:21:48;12.70;;;10.57;;
8312;SDS011;4194;43.408;24.626;2023-05-10T01:32:26;16.50;;;11.27;;
8312;SDS011;4194;43.408;24.626;2023-05-10T01:35:17;12.17;;;10.87;;
8312;SDS011;4194;43.408;24.626;2023-05-10T01:40:56;14.70;;;11.57;;
8312;SDS011;4194;43.408;24.626;2023-05-10T01:43:46;15.80;;;11.17;;
8312;SDS011;4194;43.408;24.626;2023-05-10T01:46:21;11.73;;;10.50;;
8312;SDS011;4194;43.408;24.626;2023-05-10T01:48:54;13.47;;;10.63;;
8312;SDS011;4194;43.408;24.626;2023-05-10T01:51:26;13.23;;;11.20;;
8312;SDS011;4194;43.408;24.626;2023-05-10T01:53:58;13.00;;;11.13;;
8312;SDS011;4194;43.408;24.626;2023-05-10T01:56:29;12.10;;;10.33;;
8312;SDS011;4194;43.408;24.626;2023-05-10T01:58:57;13.13;;;11.27;;
8312;SDS011;4194;43.408;24.626;2023-05-10T02:01:24;15.20;;;11.03;;
8312;SDS011;4194;43.408;24.626;2023-05-10T02:03:52;12.10;;;10.00;;
8312;SDS011;4194;43.408;24.626;2023-05-10T02:06:20;13.37;;;9.97;;
8312;SDS011;4194;43.408;24.626;2023-05-10T02:08:47;10.47;;;8.53;;
8312;SDS011;4194;43.408;24.626;2023-05-10T02:11:15;10.20;;;9.13;;
8312;SDS011;4194;43.408;24.626;2023-05-10T02:13:44;13.17;;;9.17;;
8312;SDS011;4194;43.408;24.626;2023-05-10T02:16:12;12.63;;;8.87;;
8312;SDS011;4194;43.408;24.626;2023-05-10T02:18:39;14.97;;;9.47;;
8312;SDS011;4194;43.408;24.626;2023-05-10T02:21:06;10.97;;;8.67;;
8312;SDS011;4194;43.408;24.626;2023-05-10T02:23:34;12.32;;;10.25;;
8312;SDS011;4194;43.408;24.626;2023-05-10T02:26:00;13.17;;;9.27;;
8312;SDS011;4194;43.408;24.626;2023-05-10T02:28:28;12.37;;;9.20;;
8312;SDS011;4194;43.408;24.626;2023-05-10T02:30:54;14.03;;;9.90;;
8312;SDS011;4194;43.408;24.626;2023-05-10T02:33:21;10.30;;;8.70;;
8312;SDS011;4194;43.408;24.626;2023-05-10T02:35:47;9.70;;;8.20;;
8312;SDS011;4194;43.408;24.626;2023-05-10T02:38:15;12.83;;;8.63;;
8312;SDS011;4194;43.408;24.626;2023-05-10T02:40:42;13.00;;;9.30;;
8312;SDS011;4194;43.408;24.626;2023-05-10T02:43:12;11.97;;;8.90;;
8312;SDS011;4194;43.408;24.626;2023-05-10T02:45:39;11.33;;;8.23;;
8312;SDS011;4194;43.408;24.626;2023-05-10T02:48:07;10.00;;;8.17;;
8312;SDS011;4194;43.408;24.626;2023-05-10T02:50:33;10.60;;;8.60;;
8312;SDS011;4194;43.408;24.626;2023-05-10T02:53:00;11.57;;;8.50;;
8312;SDS011;4194;43.408;24.626;2023-05-10T02:55:31;14.07;;;8.90;;
8312;SDS011;4194;43.408;24.626;2023-05-10T02:58:01;10.17;;;8.00;;
8312;SDS011;4194;43.408;24.626;2023-05-10T03:00:28;11.37;;;8.20;;
8312;SDS011;4194;43.408;24.626;2023-05-10T03:02:54;14.60;;;7.47;;
8312;SDS011;4194;43.408;24.626;2023-05-10T03:05:20;11.50;;;7.83;;
8312;SDS011;4194;43.408;24.626;2023-05-10T03:07:46;9.87;;;8.13;;
8312;SDS011;4194;43.408;24.626;2023-05-10T03:10:12;9.47;;;8.07;;
8312;SDS011;4194;43.408;24.626;2023-05-10T03:13:01;11.53;;;8.33;;
8312;SDS011;4194;43.408;24.626;2023-05-10T03:15:51;9.30;;;6.90;;
8312;SDS011;4194;43.408;24.626;2023-05-10T03:21:28;8.30;;;7.27;;
8312;SDS011;4194;43.408;24.626;2023-05-10T03:24:03;9.27;;;7.33;;
8312;SDS011;4194;43.408;24.626;2023-05-10T03:26:32;13.53;;;9.00;;
8312;SDS011;4194;43.408;24.626;2023-05-10T03:28:59;15.23;;;8.57;;
8312;SDS011;4194;43.408;24.626;2023-05-10T03:31:26;10.97;;;7.33;;
8312;SDS011;4194;43.408;24.626;2023-05-10T03:33:52;9.50;;;7.43;;
8312;SDS011;4194;43.408;24.626;2023-05-10T03:36:18;11.80;;;7.33;;
8312;SDS011;4194;43.408;24.626;2023-05-10T03:38:44;10.33;;;6.87;;
8312;SDS011;4194;43.408;24.626;2023-05-10T03:41:10;8.20;;;5.97;;
8312;SDS011;4194;43.408;24.626;2023-05-10T03:43:36;8.60;;;6.33;;
8312;SDS011;4194;43.408;24.626;2023-05-10T03:46:05;10.07;;;6.63;;
8312;SDS011;4194;43.408;24.626;2023-05-10T03:48:31;11.95;;;7.63;;
8312;SDS011;4194;43.408;24.626;2023-05-10T03:50:58;7.97;;;6.87;;
8312;SDS011;4194;43.408;24.626;2023-05-10T03:53:23;10.53;;;6.83;;
8312;SDS011;4194;43.408;24.626;2023-05-10T03:55:50;12.07;;;6.03;;
8312;SDS011;4194;43.408;24.626;2023-05-10T03:58:16;10.30;;;7.23;;
8312;SDS011;4194;43.408;24.626;2023-05-10T04:00:41;7.20;;;6.13;;
8312;SDS011;4194;43.408;24.626;2023-05-10T04:03:10;10.93;;;6.77;;
8312;SDS011;4194;43.408;24.626;2023-05-10T04:05:36;11.93;;;6.40;;
8312;SDS011;4194;43.408;24.626;2023-05-10T04:08:02;9.20;;;6.23;;
8312;SDS011;4194;43.408;24.626;2023-05-10T04:10:28;9.33;;;5.83;;
8312;SDS011;4194;43.408;24.626;2023-05-10T04:12:54;11.70;;;6.70;;
8312;SDS011;4194;43.408;24.626;2023-05-10T04:15:20;9.00;;;6.47;;
8312;SDS011;4194;43.408;24.626;2023-05-10T04:17:45;11.37;;;6.50;;
8312;SDS011;4194;43.408;24.626;2023-05-10T04:20:11;9.70;;;5.83;;
8312;SDS011;4194;43.408;24.626;2023-05-10T04:22:37;8.70;;;6.00;;
8312;SDS011;4194;43.408;24.626;2023-05-10T04:25:03;9.03;;;6.87;;
8312;SDS011;4194;43.408;24.626;2023-05-10T04:27:30;8.30;;;5.87;;
8312;SDS011;4194;43.408;24.626;2023-05-10T04:29:56;7.70;;;5.80;;
8312;SDS011;4194;43.408;24.626;2023-05-10T04:32:22;9.47;;;6.23;;
8312;SDS011;4194;43.408;24.626;2023-05-10T04:34:47;10.03;;;6.33;;
8312;SDS011;4194;43.408;24.626;2023-05-10T04:37:13;12.23;;;6.40;;
8312;SDS011;4194;43.408;24.626;2023-05-10T04:39:39;10.70;;;6.37;;
8312;SDS011;4194;43.408;24.626;2023-05-10T04:42:05;8.43;;;6.60;;
8312;SDS011;4194;43.408;24.626;2023-05-10T04:44:33;7.43;;;5.47;;
8312;SDS011;4194;43.408;24.626;2023-05-10T04:46:59;7.67;;;6.03;;
8312;SDS011;4194;43.408;24.626;2023-05-10T04:49:27;9.70;;;5.70;;
8312;SDS011;4194;43.408;24.626;2023-05-10T04:51:53;9.87;;;6.23;;
8312;SDS011;4194;43.408;24.626;2023-05-10T04:54:18;12.20;;;7.50;;
8312;SDS011;4194;43.408;24.626;2023-05-10T04:56:44;8.43;;;5.93;;
8312;SDS011;4194;43.408;24.626;2023-05-10T04:59:10;10.17;;;6.33;;
8312;SDS011;4194;43.408;24.626;2023-05-10T05:01:35;8.80;;;5.93;;
8312;SDS011;4194;43.408;24.626;2023-05-10T05:04:01;10.83;;;6.27;;
8312;SDS011;4194;43.408;24.626;2023-05-10T05:06:27;9.67;;;6.40;;
8312;SDS011;4194;43.408;24.626;2023-05-10T05:08:53;8.83;;;5.83;;
8312;SDS011;4194;43.408;24.626;2023-05-10T05:11:19;6.43;;;5.33;;
8312;SDS011;4194;43.408;24.626;2023-05-10T05:13:45;11.07;;;5.63;;
8312;SDS011;4194;43.408;24.626;2023-05-10T05:16:11;7.60;;;5.33;;
8312;SDS011;4194;43.408;24.626;2023-05-10T05:18:37;8.37;;;5.20;;
8312;SDS011;4194;43.408;24.626;2023-05-10T05:21:02;11.47;;;5.80;;
8312;SDS011;4194;43.408;24.626;2023-05-10T05:23:28;9.47;;;4.90;;
8312;SDS011;4194;43.408;24.626;2023-05-10T05:25:54;8.80;;;5.50;;
8312;SDS011;4194;43.408;24.626;2023-05-10T05:28:20;8.37;;;5.63;;
8312;SDS011;4194;43.408;24.626;2023-05-10T05:30:46;7.40;;;5.20;;
8312;SDS011;4194;43.408;24.626;2023-05-10T05:33:13;7.67;;;5.20;;
8312;SDS011;4194;43.408;24.626;2023-05-10T05:35:40;13.50;;;5.17;;
8312;SDS011;4194;43.408;24.626;2023-05-10T05:38:06;7.00;;;4.87;;
8312;SDS011;4194;43.408;24.626;2023-05-10T05:40:31;8.20;;;5.23;;
8312;SDS011;4194;43.408;24.626;2023-05-10T05:42:57;5.97;;;4.43;;
8312;SDS011;4194;43.408;24.626;2023-05-10T05:45:23;7.60;;;4.67;;
8312;SDS011;4194;43.408;24.626;2023-05-10T05:47:48;6.23;;;4.97;;
8312;SDS011;4194;43.408;24.626;2023-05-10T05:50:14;5.87;;;4.80;;
8312;SDS011;4194;43.408;24.626;2023-05-10T05:52:40;6.37;;;4.67;;
8312;SDS011;4194;43.408;24.626;2023-05-10T05:55:06;5.13;;;4.37;;
8312;SDS011;4194;43.408;24.626;2023-05-10T05:57:32;7.80;;;5.37;;
8312;SDS011;4194;43.408;24.626;2023-05-10T05:59:58;7.53;;;4.57;;
8312;SDS011;4194;43.408;24.626;2023-05-10T06:02:24;9.00;;;4.40;;
8312;SDS011;4194;43.408;24.626;2023-05-10T06:04:50;4.47;;;4.00;;
8312;SDS011;4194;43.408;24.626;2023-05-10T06:07:15;5.27;;;4.17;;
8312;SDS011;4194;43.408;24.626;2023-05-10T06:09:41;6.60;;;4.37;;
8312;SDS011;4194;43.408;24.626;2023-05-10T06:12:07;8.97;;;4.77;;
8312;SDS011;4194;43.408;24.626;2023-05-10T06:14:32;5.60;;;3.90;;
8312;SDS011;4194;43.408;24.626;2023-05-10T06:16:58;7.80;;;4.03;;
8312;SDS011;4194;43.408;24.626;2023-05-10T06:19:25;3.93;;;3.53;;
8312;SDS011;4194;43.408;24.626;2023-05-10T06:21:51;9.93;;;4.17;;
8312;SDS011;4194;43.408;24.626;2023-05-10T06:24:17;4.97;;;4.00;;
8312;SDS011;4194;43.408;24.626;2023-05-10T06:26:42;8.00;;;3.83;;
8312;SDS011;4194;43.408;24.626;2023-05-10T06:29:08;4.43;;;3.47;;
8312;SDS011;4194;43.408;24.626;2023-05-10T06:31:34;5.77;;;3.83;;
8312;SDS011;4194;43.408;24.626;2023-05-10T06:33:59;4.07;;;3.03;;
8312;SDS011;4194;43.408;24.626;2023-05-10T06:36:25;5.73;;;3.50;;
8312;SDS011;4194;43.408;24.626;2023-05-10T06:38:52;7.10;;;3.50;;
8312;SDS011;4194;43.408;24.626;2023-05-10T06:41:17;9.60;;;3.47;;
8312;SDS011;4194;43.408;24.626;2023-05-10T06:43:43;6.60;;;3.63;;
8312;SDS011;4194;43.408;24.626;2023-05-10T06:46:09;4.20;;;3.37;;
8312;SDS011;4194;43.408;24.626;2023-05-10T06:48:34;3.40;;;2.77;;
8312;SDS011;4194;43.408;24.626;2023-05-10T06:51:00;7.53;;;3.27;;
8312;SDS011;4194;43.408;24.626;2023-05-10T06:53:26;3.40;;;3.07;;
8312;SDS011;4194;43.408;24.626;2023-05-10T06:55:52;3.87;;;3.20;;
8312;SDS011;4194;43.408;24.626;2023-05-10T06:58:18;4.33;;;3.20;;
8312;SDS011;4194;43.408;24.626;2023-05-10T07:00:43;3.30;;;3.00;;
8312;SDS011;4194;43.408;24.626;2023-05-10T07:03:10;8.47;;;3.20;;
8312;SDS011;4194;43.408;24.626;2023-05-10T07:05:36;5.83;;;2.80;;
8312;SDS011;4194;43.408;24.626;2023-05-10T07:08:01;3.90;;;2.70;;
8312;SDS011;4194;43.408;24.626;2023-05-10T07:10:27;4.23;;;3.00;;
8312;SDS011;4194;43.408;24.626;2023-05-10T07:12:53;2.87;;;2.67;;
8312;SDS011;4194;43.408;24.626;2023-05-10T07:15:19;5.57;;;3.10;;
8312;SDS011;4194;43.408;24.626;2023-05-10T07:17:45;8.63;;;2.87;;
8312;SDS011;4194;43.408;24.626;2023-05-10T07:20:10;5.00;;;2.77;;
8312;SDS011;4194;43.408;24.626;2023-05-10T07:22:36;5.43;;;2.57;;
8312;SDS011;4194;43.408;24.626;2023-05-10T07:25:02;4.32;;;2.83;;
8312;SDS011;4194;43.408;24.626;2023-05-10T07:27:38;5.30;;;2.90;;
8312;SDS011;4194;43.408;24.626;2023-05-10T07:30:04;3.87;;;2.30;;
8312;SDS011;4194;43.408;24.626;2023-05-10T07:32:30;2.70;;;2.33;;
8312;SDS011;4194;43.408;24.626;2023-05-10T07:34:56;4.20;;;3.03;;
8312;SDS011;4194;43.408;24.626;2023-05-10T07:37:22;4.93;;;2.97;;
8312;SDS011;4194;43.408;24.626;2023-05-10T07:39:47;7.13;;;2.60;;
8312;SDS011;4194;43.408;24.626;2023-05-10T07:42:13;3.83;;;2.63;;
8312;SDS011;4194;43.408;24.626;2023-05-10T07:44:39;6.60;;;2.93;;
8312;SDS011;4194;43.408;24.626;2023-05-10T07:47:04;8.60;;;3.07;;
8312;SDS011;4194;43.408;24.626;2023-05-10T07:49:30;7.77;;;3.17;;
8312;SDS011;4194;43.408;24.626;2023-05-10T07:51:55;3.53;;;2.67;;
8312;SDS011;4194;43.408;24.626;2023-05-10T07:54:21;5.57;;;2.77;;
8312;SDS011;4194;43.408;24.626;2023-05-10T07:56:47;4.27;;;2.67;;
8312;SDS011;4194;43.408;24.626;2023-05-10T07:59:16;3.87;;;2.50;;
8312;SDS011;4194;43.408;24.626;2023-05-10T08:01:42;6.37;;;2.70;;
8312;SDS011;4194;43.408;24.626;2023-05-10T08:04:09;4.67;;;2.90;;
8312;SDS011;4194;43.408;24.626;2023-05-10T08:06:34;5.33;;;2.83;;
8312;SDS011;4194;43.408;24.626;2023-05-10T08:09:00;2.93;;;2.37;;
8312;SDS011;4194;43.408;24.626;2023-05-10T08:11:26;5.43;;;2.90;;
8312;SDS011;4194;43.408;24.626;2023-05-10T08:13:54;4.33;;;2.60;;
8312;SDS011;4194;43.408;24.626;2023-05-10T08:16:20;5.43;;;2.30;;
8312;SDS011;4194;43.408;24.626;2023-05-10T08:18:46;3.27;;;2.47;;
8312;SDS011;4194;43.408;24.626;2023-05-10T08:21:15;2.37;;;2.17;;
8312;SDS011;4194;43.408;24.626;2023-05-10T08:23:41;5.80;;;2.60;;
8312;SDS011;4194;43.408;24.626;2023-05-10T08:26:08;5.10;;;2.50;;
8312;SDS011;4194;43.408;24.626;2023-05-10T08:28:34;2.30;;;2.10;;
8312;SDS011;4194;43.408;24.626;2023-05-10T08:31:00;3.27;;;2.50;;
8312;SDS011;4194;43.408;24.626;2023-05-10T08:33:25;4.13;;;2.33;;
8312;SDS011;4194;43.408;24.626;2023-05-10T08:35:51;3.63;;;2.40;;
8312;SDS011;4194;43.408;24.626;2023-05-10T08:38:17;2.30;;;2.10;;
8312;SDS011;4194;43.408;24.626;2023-05-10T08:40:43;4.23;;;2.23;;
8312;SDS011;4194;43.408;24.626;2023-05-10T08:43:10;3.67;;;2.13;;
8312;SDS011;4194;43.408;24.626;2023-05-10T08:45:38;2.87;;;2.00;;
8312;SDS011;4194;43.408;24.626;2023-05-10T08:48:07;3.57;;;2.23;;
8312;SDS011;4194;43.408;24.626;2023-05-10T08:50:37;2.63;;;2.13;;
8312;SDS011;4194;43.408;24.626;2023-05-10T08:53:05;4.57;;;2.07;;
8312;SDS011;4194;43.408;24.626;2023-05-10T08:55:35;2.83;;;1.97;;
8312;SDS011;4194;43.408;24.626;2023-05-10T08:58:03;2.50;;;1.47;;
8312;SDS011;4194;43.408;24.626;2023-05-10T09:00:32;3.67;;;2.10;;
8312;SDS011;4194;43.408;24.626;2023-05-10T09:02:58;3.10;;;1.97;;
8312;SDS011;4194;43.408;24.626;2023-05-10T09:05:24;2.50;;;1.83;;
8312;SDS011;4194;43.408;24.626;2023-05-10T09:07:50;2.03;;;1.83;;
8312;SDS011;4194;43.408;24.626;2023-05-10T09:10:16;3.67;;;2.70;;
8312;SDS011;4194;43.408;24.626;2023-05-10T09:12:43;3.60;;;2.40;;
8312;SDS011;4194;43.408;24.626;2023-05-10T09:15:10;2.67;;;2.10;;
8312;SDS011;4194;43.408;24.626;2023-05-10T09:17:38;5.17;;;2.27;;
8312;SDS011;4194;43.408;24.626;2023-05-10T09:20:05;6.43;;;2.13;;
8312;SDS011;4194;43.408;24.626;2023-05-10T09:22:32;3.40;;;2.07;;
8312;SDS011;4194;43.408;24.626;2023-05-10T09:27:35;4.03;;;2.30;;
8312;SDS011;4194;43.408;24.626;2023-05-10T09:30:02;2.40;;;2.00;;
8312;SDS011;4194;43.408;24.626;2023-05-10T09:35:07;5.03;;;1.83;;
8312;SDS011;4194;43.408;24.626;2023-05-10T09:37:36;6.00;;;2.30;;
8312;SDS011;4194;43.408;24.626;2023-05-10T09:40:06;2.97;;;2.00;;
8312;SDS011;4194;43.408;24.626;2023-05-10T09:42:56;2.40;;;2.07;;
8312;SDS011;4194;43.408;24.626;2023-05-10T09:45:22;2.83;;;1.73;;
8312;SDS011;4194;43.408;24.626;2023-05-10T09:47:49;2.73;;;1.63;;
8312;SDS011;4194;43.408;24.626;2023-05-10T09:50:15;2.17;;;1.80;;
8312;SDS011;4194;43.408;24.626;2023-05-10T09:55:15;2.20;;;1.93;;
8312;SDS011;4194;43.408;24.626;2023-05-10T09:57:42;2.07;;;1.80;;
8312;SDS011;4194;43.408;24.626;2023-05-10T10:00:08;5.03;;;1.80;;
8312;SDS011;4194;43.408;24.626;2023-05-10T10:02:37;4.13;;;2.07;;
8312;SDS011;4194;43.408;24.626;2023-05-10T10:05:05;1.23;;;1.20;;
8312;SDS011;4194;43.408;24.626;2023-05-10T10:07:31;1.70;;;1.40;;
8312;SDS011;4194;43.408;24.626;2023-05-10T10:09:58;3.27;;;2.17;;
8312;SDS011;4194;43.408;24.626;2023-05-10T10:12:24;2.03;;;1.63;;
8312;SDS011;4194;43.408;24.626;2023-05-10T10:14:50;2.13;;;1.90;;
8312;SDS011;4194;43.408;24.626;2023-05-10T10:17:16;2.17;;;1.30;;
8312;SDS011;4194;43.408;24.626;2023-05-10T10:19:42;2.57;;;1.80;;
8312;SDS011;4194;43.408;24.626;2023-05-10T10:22:10;3.30;;;1.90;;
8312;SDS011;4194;43.408;24.626;2023-05-10T10:24:37;3.03;;;1.60;;
8312;SDS011;4194;43.408;24.626;2023-05-10T10:30:04;2.03;;;1.70;;
8312;SDS011;4194;43.408;24.626;2023-05-10T10:32:42;4.57;;;1.60;;
8312;SDS011;4194;43.408;24.626;2023-05-10T10:35:29;2.03;;;1.60;;
8312;SDS011;4194;43.408;24.626;2023-05-10T10:37:55;2.67;;;1.43;;
8312;SDS011;4194;43.408;24.626;2023-05-10T10:40:31;2.83;;;1.50;;
8312;SDS011;4194;43.408;24.626;2023-05-10T10:42:59;2.23;;;1.60;;
8312;SDS011;4194;43.408;24.626;2023-05-10T10:48:49;2.73;;;1.57;;
8312;SDS011;4194;43.408;24.626;2023-05-10T10:51:36;6.90;;;1.73;;
8312;SDS011;4194;43.408;24.626;2023-05-10T10:54:28;1.40;;;1.30;;
8312;SDS011;4194;43.408;24.626;2023-05-10T10:57:12;2.03;;;1.37;;
8312;SDS011;4194;43.408;24.626;2023-05-10T10:59:43;2.60;;;1.50;;
8312;SDS011;4194;43.408;24.626;2023-05-10T11:02:09;1.57;;;1.40;;
8312;SDS011;4194;43.408;24.626;2023-05-10T11:04:41;1.73;;;1.63;;
8312;SDS011;4194;43.408;24.626;2023-05-10T11:07:17;2.67;;;1.40;;
8312;SDS011;4194;43.408;24.626;2023-05-10T11:09:44;1.37;;;1.27;;
8312;SDS011;4194;43.408;24.626;2023-05-10T11:12:12;3.47;;;1.40;;
8312;SDS011;4194;43.408;24.626;2023-05-10T11:14:37;4.17;;;1.80;;
8312;SDS011;4194;43.408;24.626;2023-05-10T11:17:21;3.47;;;1.33;;
8312;SDS011;4194;43.408;24.626;2023-05-10T11:20:08;2.23;;;1.50;;
8312;SDS011;4194;43.408;24.626;2023-05-10T11:22:53;1.20;;;1.10;;
8312;SDS011;4194;43.408;24.626;2023-05-10T11:25:19;2.00;;;1.40;;
8312;SDS011;4194;43.408;24.626;2023-05-10T11:27:46;1.63;;;1.40;;
8312;SDS011;4194;43.408;24.626;2023-05-10T11:30:13;2.00;;;1.30;;
8312;SDS011;4194;43.408;24.626;2023-05-10T11:32:39;2.53;;;1.47;;
8312;SDS011;4194;43.408;24.626;2023-05-10T11:35:09;2.70;;;1.30;;
8312;SDS011;4194;43.408;24.626;2023-05-10T11:37:36;3.63;;;1.10;;
8312;SDS011;4194;43.408;24.626;2023-05-10T11:40:03;2.23;;;1.30;;
8312;SDS011;4194;43.408;24.626;2023-05-10T11:42:29;2.50;;;1.37;;
8312;SDS011;4194;43.408;24.626;2023-05-10T11:44:55;7.40;;;1.80;;
8312;SDS011;4194;43.408;24.626;2023-05-10T11:47:21;2.87;;;1.30;;
8312;SDS011;4194;43.408;24.626;2023-05-10T11:49:47;1.77;;;1.67;;
8312;SDS011;4194;43.408;24.626;2023-05-10T11:52:13;1.50;;;1.40;;
8312;SDS011;4194;43.408;24.626;2023-05-10T11:54:50;2.30;;;1.10;;
8312;SDS011;4194;43.408;24.626;2023-05-10T11:57:18;3.13;;;1.50;;
8312;SDS011;4194;43.408;24.626;2023-05-10T11:59:46;2.57;;;2.00;;
8312;SDS011;4194;43.408;24.626;2023-05-10T12:02:15;1.40;;;1.30;;
8312;SDS011;4194;43.408;24.626;2023-05-10T12:04:41;2.30;;;1.00;;
8312;SDS011;4194;43.408;24.626;2023-05-10T12:07:07;3.13;;;1.20;;
8312;SDS011;4194;43.408;24.626;2023-05-10T12:09:32;1.63;;;1.20;;
8312;SDS011;4194;43.408;24.626;2023-05-10T12:11:58;6.60;;;2.13;;
8312;SDS011;4194;43.408;24.626;2023-05-10T12:14:24;2.27;;;1.13;;
8312;SDS011;4194;43.408;24.626;2023-05-10T12:16:49;2.80;;;1.10;;
8312;SDS011;4194;43.408;24.626;2023-05-10T12:19:19;1.73;;;1.30;;
8312;SDS011;4194;43.408;24.626;2023-05-10T12:21:47;1.60;;;1.40;;
8312;SDS011;4194;43.408;24.626;2023-05-10T12:24:13;2.10;;;1.57;;
8312;SDS011;4194;43.408;24.626;2023-05-10T12:26:42;1.77;;;1.30;;
8312;SDS011;4194;43.408;24.626;2023-05-10T12:31:50;1.80;;;1.17;;
8312;SDS011;4194;43.408;24.626;2023-05-10T12:34:26;13.30;;;1.97;;
8312;SDS011;4194;43.408;24.626;2023-05-10T12:36:55;1.50;;;1.10;;
8312;SDS011;4194;43.408;24.626;2023-05-10T12:39:21;3.53;;;0.97;;
8312;SDS011;4194;43.408;24.626;2023-05-10T12:41:46;1.37;;;1.10;;
8312;SDS011;4194;43.408;24.626;2023-05-10T12:44:12;1.60;;;1.30;;
8312;SDS011;4194;43.408;24.626;2023-05-10T12:46:38;1.57;;;1.20;;
8312;SDS011;4194;43.408;24.626;2023-05-10T12:49:03;2.73;;;1.30;;
8312;SDS011;4194;43.408;24.626;2023-05-10T12:51:29;1.50;;;1.03;;
8312;SDS011;4194;43.408;24.626;2023-05-10T12:53:56;1.40;;;1.10;;
8312;SDS011;4194;43.408;24.626;2023-05-10T12:56:21;1.80;;;1.50;;
8312;SDS011;4194;43.408;24.626;2023-05-10T12:58:47;2.13;;;1.50;;
8312;SDS011;4194;43.408;24.626;2023-05-10T13:01:13;1.30;;;1.20;;
8312;SDS011;4194;43.408;24.626;2023-05-10T13:03:39;1.63;;;1.53;;
8312;SDS011;4194;43.408;24.626;2023-05-10T13:06:05;1.53;;;1.23;;
8312;SDS011;4194;43.408;24.626;2023-05-10T13:08:31;1.63;;;1.50;;
8312;SDS011;4194;43.408;24.626;2023-05-10T13:10:59;1.97;;;1.00;;
8312;SDS011;4194;43.408;24.626;2023-05-10T13:13:25;2.37;;;1.30;;
8312;SDS011;4194;43.408;24.626;2023-05-10T13:15:51;1.53;;;1.20;;
8312;SDS011;4194;43.408;24.626;2023-05-10T13:18:17;5.03;;;1.40;;
8312;SDS011;4194;43.408;24.626;2023-05-10T13:20:42;1.37;;;1.23;;
8312;SDS011;4194;43.408;24.626;2023-05-10T13:23:09;1.50;;;1.03;;
8312;SDS011;4194;43.408;24.626;2023-05-10T13:25:35;1.97;;;1.20;;
8312;SDS011;4194;43.408;24.626;2023-05-10T13:28:01;1.20;;;1.10;;
8312;SDS011;4194;43.408;24.626;2023-05-10T13:30:27;1.17;;;1.00;;
8312;SDS011;4194;43.408;24.626;2023-05-10T13:32:53;1.77;;;1.40;;
8312;SDS011;4194;43.408;24.626;2023-05-10T13:35:19;2.17;;;1.30;;
8312;SDS011;4194;43.408;24.626;2023-05-10T13:37:45;3.60;;;1.10;;
8312;SDS011;4194;43.408;24.626;2023-05-10T13:40:11;4.53;;;1.60;;
8312;SDS011;4194;43.408;24.626;2023-05-10T13:42:37;2.60;;;1.20;;
8312;SDS011;4194;43.408;24.626;2023-05-10T13:45:03;1.10;;;1.00;;
8312;SDS011;4194;43.408;24.626;2023-05-10T13:47:29;2.27;;;1.20;;
8312;SDS011;4194;43.408;24.626;2023-05-10T13:49:54;2.33;;;1.40;;
8312;SDS011;4194;43.408;24.626;2023-05-10T13:52:21;1.53;;;1.20;;
8312;SDS011;4194;43.408;24.626;2023-05-10T13:54:46;3.03;;;1.43;;
8312;SDS011;4194;43.408;24.626;2023-05-10T13:57:12;1.30;;;1.20;;
8312;SDS011;4194;43.408;24.626;2023-05-10T13:59:38;1.63;;;1.20;;
8312;SDS011;4194;43.408;24.626;2023-05-10T14:02:05;2.00;;;1.80;;
8312;SDS011;4194;43.408;24.626;2023-05-10T14:04:31;3.73;;;1.37;;
8312;SDS011;4194;43.408;24.626;2023-05-10T14:06:57;7.47;;;1.73;;
8312;SDS011;4194;43.408;24.626;2023-05-10T14:09:23;2.03;;;1.20;;
8312;SDS011;4194;43.408;24.626;2023-05-10T14:11:48;2.80;;;1.10;;
8312;SDS011;4194;43.408;24.626;2023-05-10T14:14:14;2.57;;;1.40;;
8312;SDS011;4194;43.408;24.626;2023-05-10T14:16:43;2.40;;;1.30;;
8312;SDS011;4194;43.408;24.626;2023-05-10T14:19:09;1.70;;;1.43;;
8312;SDS011;4194;43.408;24.626;2023-05-10T14:21:36;4.17;;;1.57;;
8312;SDS011;4194;43.408;24.626;2023-05-10T14:24:02;3.90;;;1.60;;
8312;SDS011;4194;43.408;24.626;2023-05-10T14:26:28;1.90;;;1.63;;
8312;SDS011;4194;43.408;24.626;2023-05-10T14:28:53;3.13;;;1.57;;
8312;SDS011;4194;43.408;24.626;2023-05-10T14:31:19;1.43;;;1.27;;
8312;SDS011;4194;43.408;24.626;2023-05-10T14:33:45;1.60;;;1.50;;
8312;SDS011;4194;43.408;24.626;2023-05-10T14:36:12;2.80;;;1.50;;
8312;SDS011;4194;43.408;24.626;2023-05-10T14:38:38;1.47;;;1.33;;
8312;SDS011;4194;43.408;24.626;2023-05-10T14:41:04;2.00;;;1.37;;
8312;SDS011;4194;43.408;24.626;2023-05-10T14:43:30;1.70;;;1.30;;
8312;SDS011;4194;43.408;24.626;2023-05-10T14:45:56;3.60;;;1.50;;
8312;SDS011;4194;43.408;24.626;2023-05-10T14:48:22;2.83;;;1.47;;
8312;SDS011;4194;43.408;24.626;2023-05-10T14:50:47;1.43;;;1.30;;
8312;SDS011;4194;43.408;24.626;2023-05-10T14:53:14;2.33;;;1.50;;
8312;SDS011;4194;43.408;24.626;2023-05-10T14:55:40;4.00;;;1.40;;
8312;SDS011;4194;43.408;24.626;2023-05-10T14:58:06;2.43;;;1.80;;
8312;SDS011;4194;43.408;24.626;2023-05-10T15:00:32;5.13;;;1.60;;
8312;SDS011;4194;43.408;24.626;2023-05-10T15:02:58;3.30;;;1.50;;
8312;SDS011;4194;43.408;24.626;2023-05-10T15:05:23;2.43;;;1.40;;
8312;SDS011;4194;43.408;24.626;2023-05-10T15:07:49;1.43;;;1.30;;
8312;SDS011;4194;43.408;24.626;2023-05-10T15:10:17;1.83;;;1.10;;
8312;SDS011;4194;43.408;24.626;2023-05-10T15:12:43;2.17;;;1.90;;
8312;SDS011;4194;43.408;24.626;2023-05-10T15:15:09;2.40;;;1.67;;
8312;SDS011;4194;43.408;24.626;2023-05-10T15:17:34;3.03;;;1.83;;
8312;SDS011;4194;43.408;24.626;2023-05-10T15:20:00;2.93;;;1.47;;
8312;SDS011;4194;43.408;24.626;2023-05-10T15:22:28;7.47;;;1.90;;
8312;SDS011;4194;43.408;24.626;2023-05-10T15:24:55;2.30;;;1.57;;
8312;SDS011;4194;43.408;24.626;2023-05-10T15:27:20;2.50;;;2.17;;